Time;durP1;ratioP1;P1;durP2;ratioP2;P2;SDS_P1;SDS_P2;PMS_P1;PMS_P2;Temp;Humidity;BMP_temperature;BMP_pressure;BME280_temperature;BME280_humidity;BME280_pressure;Samples;Min_cycle;Max_cycle;Signal;HPM_P1;HPM_P2
2023/07/07 00:00:54;;;;;;;13.33;11.50;;;;;;;14.64;78.43;101518.06;4921755;29;20425;-69
2023/07/07 00:03:23;;;;;;;12.83;10.70;;;;;;;14.78;78.09;101516.97;4922451;29;20452;-72
2023/07/07 00:05:54;;;;;;;9.60;8.70;;;;;;;14.66;77.05;101508.63;4986381;23;20503;-66
2023/07/07 00:08:24;;;;;;;10.83;9.70;;;;;;;14.75;76.26;101512.78;4918224;29;20550;-66
2023/07/07 00:10:54;;;;;;;11.87;10.50;;;;;;;14.62;76.47;101512.00;4925487;29;20849;-65
2023/07/07 00:13:23;;;;;;;10.70;9.13;;;;;;;14.60;76.27;101511.38;4917661;29;20515;-65
2023/07/07 00:15:58;;;;;;;9.60;7.20;;;;;;;14.55;77.20;101511.16;4925371;29;20443;-66
2023/07/07 00:18:27;;;;;;;9.57;7.83;;;;;;;14.58;77.32;101505.28;4915877;29;20540;-66
2023/07/07 00:20:59;;;;;;;10.30;8.90;;;;;;;14.50;77.79;101513.69;4922283;29;20484;-63
2023/07/07 00:23:30;;;;;;;9.63;8.60;;;;;;;14.60;78.79;101503.19;4921633;29;20433;-65
2023/07/07 00:26:05;;;;;;;9.50;8.70;;;;;;;14.68;78.26;101505.69;4923850;29;20441;-62
2023/07/07 00:28:36;;;;;;;11.90;8.73;;;;;;;14.60;79.53;101497.75;4916238;29;20771;-64
2023/07/07 00:31:05;;;;;;;13.77;8.60;;;;;;;14.45;79.59;101505.31;4917234;29;20521;-66
2023/07/07 00:33:34;;;;;;;9.00;8.10;;;;;;;14.53;80.46;101508.66;4921109;29;20441;-65
2023/07/07 00:36:03;;;;;;;11.20;10.00;;;;;;;14.40;80.99;101513.28;4921651;29;20441;-66
2023/07/07 00:38:33;;;;;;;10.57;9.10;;;;;;;14.42;81.09;101516.66;4923585;29;20837;-64
2023/07/07 00:41:07;;;;;;;9.33;8.33;;;;;;;14.40;81.78;101505.97;4920628;29;20500;-65
2023/07/07 00:43:37;;;;;;;9.37;8.37;;;;;;;14.47;81.64;101514.13;4927365;29;21015;-66
2023/07/07 00:46:06;;;;;;;10.70;9.37;;;;;;;14.34;81.88;101510.34;4922762;29;20453;-64
2023/07/07 00:48:38;;;;;;;9.77;8.47;;;;;;;14.51;81.82;101510.75;4917568;29;20453;-64
2023/07/07 00:51:14;;;;;;;10.93;9.07;;;;;;;14.35;82.31;101522.06;4918040;29;20441;-65
2023/07/07 00:53:48;;;;;;;11.77;9.40;;;;;;;14.29;81.74;101512.00;4924904;29;20579;-65
2023/07/07 00:56:30;;;;;;;9.23;8.33;;;;;;;14.35;82.27;101520.19;4920782;29;20532;-64
2023/07/07 00:59:04;;;;;;;10.20;9.10;;;;;;;14.42;81.94;101516.66;4930669;29;20851;-62
2023/07/07 01:01:36;;;;;;;13.37;10.27;;;;;;;14.27;82.44;101519.56;4917628;29;20408;-65
2023/07/07 01:04:10;;;;;;;9.50;8.33;;;;;;;14.26;82.18;101523.34;4921590;29;20429;-63
2023/07/07 01:06:43;;;;;;;11.23;9.90;;;;;;;14.19;82.54;101525.22;4918698;29;20502;-66
2023/07/07 01:09:13;;;;;;;11.77;9.20;;;;;;;14.28;82.77;101532.16;4916292;29;20925;-64
2023/07/07 01:11:42;;;;;;;13.73;8.90;;;;;;;14.14;84.03;101531.28;4925963;29;20455;-63
2023/07/07 01:14:14;;;;;;;13.90;9.23;;;;;;;13.95;83.89;101545.75;4930631;29;20454;-69
2023/07/07 01:16:56;;;;;;;9.17;8.30;;;;;;;13.76;84.14;101544.69;4918289;29;20480;-66
2023/07/07 01:19:56;;;;;;;13.10;9.87;;;;;;;13.92;84.49;101538.00;4927579;29;20418;-64
2023/07/07 01:22:53;;;;;;;10.50;8.57;;;;;;;13.75;84.76;101528.56;4923679;29;20500;-65
2023/07/07 01:25:37;;;;;;;10.07;8.67;;;;;;;13.71;86.12;101532.75;4920052;29;20429;-66
2023/07/07 01:29:00;;;;;;;13.90;9.90;;;;;;;13.87;85.60;101535.91;4920203;29;20466;-68
2023/07/07 01:31:40;;;;;;;9.03;8.23;;;;;;;13.92;85.58;101532.56;4922512;29;20882;-65
2023/07/07 01:34:13;;;;;;;9.60;8.13;;;;;;;14.03;85.88;101534.66;4916726;29;20404;-64
2023/07/07 01:36:42;;;;;;;9.57;8.57;;;;;;;13.90;86.89;101534.63;4921803;29;20535;-64
2023/07/07 01:39:12;;;;;;;10.73;9.53;;;;;;;14.01;86.42;101539.47;4930034;29;20445;-67
2023/07/07 01:41:46;;;;;;;9.80;8.80;;;;;;;14.05;86.05;101537.16;4930432;28;20545;-66
2023/07/07 01:44:19;;;;;;;10.47;9.40;;;;;;;14.00;85.71;101534.22;4916231;29;20891;-64
2023/07/07 01:46:56;;;;;;;10.87;9.50;;;;;;;13.92;85.97;101536.13;4924809;29;20473;-64
2023/07/07 01:49:32;;;;;;;12.80;10.00;;;;;;;14.02;85.75;101535.72;4918880;29;20519;-65
2023/07/07 01:52:07;;;;;;;13.87;11.37;;;;;;;14.10;84.86;101535.50;4924802;29;20475;-63
2023/07/07 01:54:39;;;;;;;12.23;10.37;;;;;;;13.98;85.78;101531.72;4936241;29;20432;-64
2023/07/07 01:57:09;;;;;;;11.80;10.63;;;;;;;13.93;86.48;101524.19;4919583;29;20512;-66
2023/07/07 01:59:41;;;;;;;11.20;9.80;;;;;;;13.91;86.14;101533.59;4924383;29;20543;-63
2023/07/07 02:02:12;;;;;;;11.97;9.50;;;;;;;13.85;86.74;101537.97;4925377;29;20827;-64
2023/07/07 02:04:41;;;;;;;11.67;9.50;;;;;;;13.76;87.46;101532.94;4920246;29;20445;-65
2023/07/07 02:07:10;;;;;;;9.50;8.57;;;;;;;13.90;86.51;101540.91;4916495;29;20470;-66
2023/07/07 02:09:39;;;;;;;10.20;9.30;;;;;;;14.04;85.92;101532.78;4918580;29;20804;-66
2023/07/07 02:12:09;;;;;;;10.13;9.10;;;;;;;14.02;86.20;101533.00;4925482;29;20449;-66
2023/07/07 02:14:37;;;;;;;11.50;9.53;;;;;;;13.98;86.45;101539.91;4946757;29;20439;-65
2023/07/07 02:17:07;;;;;;;10.17;8.67;;;;;;;13.98;86.41;101536.34;4919147;29;20469;-66
2023/07/07 02:19:37;;;;;;;13.20;9.37;;;;;;;13.90;87.00;101540.09;4920777;29;20970;-66
2023/07/07 02:22:06;;;;;;;10.20;8.90;;;;;;;13.92;86.99;101543.44;4916318;29;20441;-66
2023/07/07 02:24:35;;;;;;;11.10;9.03;;;;;;;13.76;88.05;101535.69;4919599;29;20807;-65
2023/07/07 02:27:07;;;;;;;10.27;8.77;;;;;;;13.86;87.41;101541.56;4924309;29;20431;-66
2023/07/07 02:29:36;;;;;;;9.97;8.97;;;;;;;13.73;88.14;101544.25;4921796;29;20879;-66
2023/07/07 02:32:06;;;;;;;9.30;8.03;;;;;;;13.58;88.95;101538.16;4921782;29;20799;-65
2023/07/07 02:34:37;;;;;;;10.10;9.07;;;;;;;13.39;89.80;101537.06;4921496;29;20518;-67
2023/07/07 02:37:12;;;;;;;10.30;9.40;;;;;;;13.62;89.91;101536.69;4920538;29;20492;-64
2023/07/07 02:39:44;;;;;;;10.13;8.80;;;;;;;13.84;89.32;101546.38;4920562;29;20425;-66
2023/07/07 02:42:14;;;;;;;10.97;9.43;;;;;;;13.89;89.07;101547.41;4924365;29;20477;-65
2023/07/07 02:44:43;;;;;;;10.57;8.47;;;;;;;13.80;89.11;101550.53;4932690;29;21000;-65
2023/07/07 02:47:12;;;;;;;18.73;15.57;;;;;;;13.86;89.14;101549.72;4925106;29;20472;-65
2023/07/07 02:49:42;;;;;;;13.50;10.60;;;;;;;13.63;89.88;101555.53;4934310;29;20512;-65
2023/07/07 02:52:11;;;;;;;11.57;9.60;;;;;;;13.68;89.67;101544.88;4926345;29;20433;-66
2023/07/07 02:54:40;;;;;;;11.57;9.90;;;;;;;13.67;90.42;101551.38;4933381;29;20438;-66
2023/07/07 02:57:09;;;;;;;9.33;8.43;;;;;;;13.74;90.64;101541.34;4927201;29;20465;-65
2023/07/07 02:59:38;;;;;;;8.87;7.97;;;;;;;13.90;89.71;101548.25;4921827;29;20854;-65
2023/07/07 03:02:08;;;;;;;10.97;9.83;;;;;;;14.05;88.44;101543.44;4917715;29;20988;-64
2023/07/07 03:04:36;;;;;;;12.40;9.00;;;;;;;14.05;88.47;101546.16;4940303;29;20437;-65
2023/07/07 03:07:07;;;;;;;12.90;9.60;;;;;;;13.92;88.52;101554.31;4924275;29;20461;-65
2023/07/07 03:09:36;;;;;;;10.47;9.20;;;;;;;13.87;88.67;101551.38;4938353;29;20453;-64
2023/07/07 03:12:06;;;;;;;11.27;9.57;;;;;;;13.78;89.01;101548.03;4919857;29;20437;-66
2023/07/07 03:14:35;;;;;;;11.03;8.73;;;;;;;13.69;89.26;101553.88;4935871;29;20434;-64
2023/07/07 03:17:05;;;;;;;11.10;8.90;;;;;;;13.70;89.27;101550.13;4932943;29;20907;-66
2023/07/07 03:19:43;;;;;;;9.40;8.30;;;;;;;13.80;88.51;101559.53;4920011;29;20555;-64
2023/07/07 03:22:17;;;;;;;9.40;8.50;;;;;;;13.93;87.97;101561.44;4927804;29;20407;-67
2023/07/07 03:24:52;;;;;;;12.13;9.90;;;;;;;14.05;86.78;101557.03;4921128;29;20505;-64
2023/07/07 03:27:34;;;;;;;8.90;8.10;;;;;;;14.07;86.41;101560.41;4932300;29;20520;-66
2023/07/07 03:30:03;;;;;;;11.07;9.77;;;;;;;14.16;86.53;101555.59;4933610;29;20483;-64
2023/07/07 03:32:45;;;;;;;9.67;8.50;;;;;;;14.26;86.25;101556.00;4934759;29;20423;-65
2023/07/07 03:35:15;;;;;;;15.67;9.90;;;;;;;14.31;85.98;101564.38;4923734;29;20420;-66
2023/07/07 03:37:45;;;;;;;10.13;9.00;;;;;;;14.49;85.16;101556.44;4946402;28;20476;-64
2023/07/07 03:40:14;;;;;;;15.10;11.37;;;;;;;14.87;83.97;101562.00;4921031;29;20446;-66
2023/07/07 03:42:43;;;;;;;11.00;9.90;;;;;;;15.58;80.42;101561.94;4929050;29;20850;-65
2023/07/07 03:45:16;;;;;;;11.77;9.60;;;;;;;16.52;75.64;101570.00;4919165;29;20425;-66
2023/07/07 03:47:45;;;;;;;12.60;9.03;;;;;;;17.91;69.10;101566.44;4923641;29;20436;-62
2023/07/07 03:50:15;;;;;;;10.90;9.57;;;;;;;19.18;63.55;101571.09;4916879;29;20454;-66
2023/07/07 03:52:45;;;;;;;11.03;8.30;;;;;;;19.88;59.84;101568.94;4918350;29;20973;-65
2023/07/07 03:55:14;;;;;;;9.33;8.47;;;;;;;20.08;58.55;101575.88;4922217;29;20440;-64
2023/07/07 03:57:43;;;;;;;13.87;9.63;;;;;;;20.78;56.23;101581.69;4927166;29;20977;-63
2023/07/07 04:00:13;;;;;;;8.43;7.63;;;;;;;20.98;55.20;101581.97;4916821;29;20424;-65
2023/07/07 04:02:43;;;;;;;9.07;8.17;;;;;;;21.64;52.99;101585.53;4923997;29;20408;-66
2023/07/07 04:05:15;;;;;;;9.57;8.50;;;;;;;22.28;50.88;101585.63;4920263;29;20424;-65
2023/07/07 04:07:46;;;;;;;11.20;9.30;;;;;;;22.14;50.99;101589.94;4929138;29;20431;-64
2023/07/07 04:10:16;;;;;;;13.23;9.17;;;;;;;22.27;50.39;101584.81;4934391;29;20459;-66
2023/07/07 04:12:45;;;;;;;9.50;8.30;;;;;;;22.40;49.57;101592.66;4925733;29;20442;-66
2023/07/07 04:15:14;;;;;;;14.07;9.33;;;;;;;22.98;48.19;101595.53;4923220;29;20462;-66
2023/07/07 04:17:43;;;;;;;11.13;8.50;;;;;;;23.01;48.06;101601.34;4924058;29;20818;-66
2023/07/07 04:20:12;;;;;;;10.27;9.27;;;;;;;22.98;48.07;101596.38;4918309;29;20415;-66
2023/07/07 04:22:48;;;;;;;12.67;9.70;;;;;;;23.16;47.92;101595.06;4936090;29;20441;-64
2023/07/07 04:25:18;;;;;;;14.33;9.00;;;;;;;23.25;47.27;101598.97;4916831;29;20485;-65
2023/07/07 04:27:47;;;;;;;12.63;9.80;;;;;;;23.06;47.32;101595.84;4928398;29;20487;-62
2023/07/07 04:30:17;;;;;;;9.87;8.83;;;;;;;23.08;47.35;101596.44;4918471;29;20430;-64
2023/07/07 04:32:46;;;;;;;10.10;9.10;;;;;;;23.37;47.02;101607.88;4943740;28;20519;-64
2023/07/07 04:35:15;;;;;;;11.27;9.57;;;;;;;23.36;46.50;101606.22;4923442;29;20400;-66
2023/07/07 04:37:44;;;;;;;13.33;11.67;;;;;;;23.30;47.18;101610.03;4914389;29;20445;-67
2023/07/07 04:40:15;;;;;;;13.67;11.50;;;;;;;23.51;46.46;101608.25;4922680;29;20467;-65
2023/07/07 04:42:44;;;;;;;18.73;11.87;;;;;;;23.50;46.48;101612.09;4911752;29;20412;-61
2023/07/07 04:45:13;;;;;;;13.27;11.87;;;;;;;23.58;46.78;101612.41;4925810;29;20444;-65
2023/07/07 04:47:42;;;;;;;13.23;10.50;;;;;;;23.26;47.63;101619.97;4920090;29;20964;-64
2023/07/07 04:50:11;;;;;;;15.17;13.53;;;;;;;23.51;47.33;101616.53;4919240;29;21082;-64
2023/07/07 04:52:40;;;;;;;13.47;11.83;;;;;;;23.32;47.64;101618.91;4925020;29;20423;-66
2023/07/07 04:55:10;;;;;;;13.50;10.63;;;;;;;24.43;46.04;101629.44;4920749;29;20412;-65
2023/07/07 04:57:40;;;;;;;11.80;10.60;;;;;;;24.62;45.67;101631.38;4913089;29;20512;-65
2023/07/07 05:00:10;;;;;;;18.33;11.43;;;;;;;25.50;43.86;101625.34;4919739;29;20553;-65
2023/07/07 05:02:40;;;;;;;13.87;11.37;;;;;;;26.00;43.16;101621.47;4919895;29;20437;-64
2023/07/07 05:05:09;;;;;;;16.80;11.07;;;;;;;26.67;41.38;101619.84;4915238;29;20511;-66
2023/07/07 05:07:38;;;;;;;11.10;10.00;;;;;;;26.24;41.57;101627.97;4913052;29;20432;-68
2023/07/07 05:10:08;;;;;;;13.10;10.53;;;;;;;26.81;40.85;101631.94;4921729;29;20568;-66
2023/07/07 05:12:37;;;;;;;13.33;10.77;;;;;;;27.01;40.51;101631.75;4924324;29;20423;-64
2023/07/07 05:15:08;;;;;;;14.33;9.80;;;;;;;28.00;37.21;101638.28;4922802;29;20957;-65
2023/07/07 05:17:37;;;;;;;10.60;6.87;;;;;;;27.46;34.47;101643.44;4927518;29;20464;-65
2023/07/07 05:20:07;;;;;;;7.23;5.27;;;;;;;27.37;33.80;101639.66;4918747;29;20843;-65
2023/07/07 05:22:36;;;;;;;6.80;5.90;;;;;;;27.79;33.67;101636.09;4922626;29;20429;-63
2023/07/07 05:25:10;;;;;;;7.27;4.70;;;;;;;28.07;32.40;101638.72;4923361;29;20612;-64
2023/07/07 05:27:39;;;;;;;6.03;5.27;;;;;;;28.20;32.36;101641.91;4920743;29;20480;-65
2023/07/07 05:30:10;;;;;;;7.43;5.80;;;;;;;29.22;31.57;101652.91;4922658;29;21024;-68
2023/07/07 05:32:39;;;;;;;5.80;4.97;;;;;;;29.74;31.45;101641.22;4917695;29;20403;-64
2023/07/07 05:35:09;;;;;;;5.57;4.70;;;;;;;28.21;32.96;101638.81;4918086;29;20489;-67
2023/07/07 05:37:38;;;;;;;5.90;5.27;;;;;;;28.98;32.87;101647.53;4919283;29;20511;-66
2023/07/07 05:40:09;;;;;;;5.23;4.10;;;;;;;28.35;34.09;101638.88;4916426;29;20462;-65
2023/07/07 05:42:41;;;;;;;6.17;4.03;;;;;;;26.33;36.71;101648.47;4923357;29;20465;-69
2023/07/07 05:45:12;;;;;;;8.00;4.37;;;;;;;24.27;38.55;101652.66;4918605;29;20450;-66
2023/07/07 05:47:41;;;;;;;6.30;4.10;;;;;;;23.09;41.28;101646.97;4920158;29;20435;-67
2023/07/07 05:50:10;;;;;;;6.60;4.57;;;;;;;22.35;42.28;101649.69;4917529;29;20436;-65
2023/07/07 05:52:39;;;;;;;7.43;6.20;;;;;;;22.05;43.60;101652.97;4921312;29;20435;-64
2023/07/07 05:55:22;;;;;;;5.60;4.47;;;;;;;21.65;44.48;101658.81;4917728;29;20416;-66
2023/07/07 05:57:51;;;;;;;8.30;5.43;;;;;;;21.47;43.26;101657.25;4917095;29;20435;-67
2023/07/07 06:00:22;;;;;;;6.50;5.53;;;;;;;21.32;44.68;101659.78;4914657;29;20434;-65
2023/07/07 06:02:51;;;;;;;4.70;4.13;;;;;;;21.45;44.01;101659.41;4915056;29;20419;-63
2023/07/07 06:05:23;;;;;;;5.93;4.57;;;;;;;21.48;45.06;101660.84;4949214;23;20479;-77
2023/07/07 06:07:53;;;;;;;5.33;4.83;;;;;;;21.74;43.86;101671.06;4938862;29;20968;-80
2023/07/07 06:10:23;;;;;;;4.97;3.50;;;;;;;21.72;42.41;101669.66;4945995;29;20460;-79
2023/07/07 06:12:53;;;;;;;17.60;5.10;;;;;;;21.76;43.14;101674.41;4943453;29;20403;-80
2023/07/07 06:15:23;;;;;;;6.67;3.70;;;;;;;21.81;42.02;101681.88;4946544;28;20406;-80
2023/07/07 06:17:53;;;;;;;6.00;5.50;;;;;;;21.81;42.90;101673.63;4940609;29;20499;-80
2023/07/07 06:20:22;;;;;;;6.10;5.47;;;;;;;21.95;43.82;101678.50;4939123;29;20442;-79
2023/07/07 06:22:53;;;;;;;5.60;4.63;;;;;;;21.88;42.22;101674.25;4942355;29;20462;-79
2023/07/07 06:25:22;;;;;;;6.17;5.10;;;;;;;21.99;43.01;101679.66;4942029;29;20585;-80
2023/07/07 06:27:51;;;;;;;10.90;5.20;;;;;;;22.07;43.30;101670.91;4948123;29;20436;-79
2023/07/07 06:30:23;;;;;;;6.80;5.30;;;;;;;22.13;42.02;101679.22;4941509;29;20545;-81
2023/07/07 06:32:52;;;;;;;7.90;5.60;;;;;;;22.31;42.50;101689.91;4939282;29;20483;-78
2023/07/07 06:35:21;;;;;;;10.10;5.33;;;;;;;22.45;42.00;101682.88;4940929;29;20408;-80
2023/07/07 06:37:50;;;;;;;9.40;5.17;;;;;;;22.48;41.33;101682.34;4941791;29;20443;-81
2023/07/07 06:40:19;;;;;;;7.57;5.53;;;;;;;22.45;41.09;101675.44;4938950;29;20422;-80
2023/07/07 06:42:50;;;;;;;6.50;5.50;;;;;;;22.52;42.37;101681.53;4942213;29;20456;-79
2023/07/07 06:45:20;;;;;;;8.17;6.07;;;;;;;22.69;41.01;101680.59;4937995;29;20415;-83
2023/07/07 06:47:50;;;;;;;7.77;5.97;;;;;;;22.87;40.38;101686.56;4937848;29;20441;-78
2023/07/07 06:50:29;;;;;;;5.50;5.00;;;;;;;23.06;40.34;101691.63;4940349;29;20526;-78
2023/07/07 06:52:58;;;;;;;6.33;4.70;;;;;;;23.00;39.82;101690.78;4946204;29;20992;-78
2023/07/07 06:55:28;;;;;;;7.67;5.50;;;;;;;22.98;40.00;101689.38;4944101;29;20432;-77
2023/07/07 06:57:57;;;;;;;5.20;4.20;;;;;;;23.03;39.60;101686.66;4941834;29;20432;-77
2023/07/07 07:00:26;;;;;;;6.30;3.93;;;;;;;22.95;39.36;101683.28;4937823;29;20441;-77
2023/07/07 07:02:56;;;;;;;6.00;3.30;;;;;;;23.11;38.80;101689.75;4936825;29;20519;-77
2023/07/07 07:05:25;;;;;;;6.50;3.77;;;;;;;23.25;38.73;101692.88;4933802;29;20411;-77
2023/07/07 07:07:54;;;;;;;3.33;3.03;;;;;;;23.33;38.75;101695.16;4936789;29;21002;-78
2023/07/07 07:10:23;;;;;;;5.53;3.80;;;;;;;23.52;38.72;101696.38;4937752;29;21081;-77
2023/07/07 07:12:53;;;;;;;4.77;4.37;;;;;;;23.66;38.22;101696.72;4948406;29;20845;-77
2023/07/07 07:15:23;;;;;;;7.40;3.90;;;;;;;23.63;37.28;101695.31;4953655;29;20391;-77
2023/07/07 07:17:52;;;;;;;4.70;3.20;;;;;;;23.76;37.01;101692.06;4949850;29;20433;-77
2023/07/07 07:20:22;;;;;;;5.00;3.20;;;;;;;23.77;38.13;101690.94;4936170;29;20432;-77
2023/07/07 07:22:51;;;;;;;3.53;3.23;;;;;;;23.82;37.56;101682.66;4938063;29;20520;-77
2023/07/07 07:25:21;;;;;;;11.33;10.10;;;;;;;23.92;37.20;101690.16;4938437;29;20421;-77
2023/07/07 07:27:50;;;;;;;5.87;4.20;;;;;;;23.85;37.55;101684.06;4936395;29;20429;-78
2023/07/07 07:30:19;;;;;;;6.50;5.80;;;;;;;23.96;37.33;101684.94;4937270;29;20457;-77
2023/07/07 07:32:48;;;;;;;4.23;3.67;;;;;;;24.06;37.36;101684.97;4934973;29;20700;-78
2023/07/07 07:35:17;;;;;;;4.03;3.20;;;;;;;24.15;36.06;101684.16;4932147;29;20605;-76
2023/07/07 07:37:48;;;;;;;5.67;4.80;;;;;;;24.30;37.42;101686.16;4937718;29;20571;-77
2023/07/07 07:40:17;;;;;;;7.17;6.43;;;;;;;24.46;35.92;101681.44;4939731;29;20460;-78
2023/07/07 07:42:46;;;;;;;5.07;3.57;;;;;;;24.39;35.40;101684.50;4938872;29;20832;-77
2023/07/07 07:45:19;;;;;;;4.13;3.60;;;;;;;24.41;35.86;101676.72;4938463;29;20415;-76
2023/07/07 07:47:48;;;;;;;5.23;3.80;;;;;;;24.47;36.37;101683.94;4934692;29;20407;-78
2023/07/07 07:50:19;;;;;;;10.47;4.10;;;;;;;24.56;36.57;101689.75;4936794;29;20508;-77
2023/07/07 07:52:50;;;;;;;4.33;3.07;;;;;;;24.41;35.43;101690.56;4939131;29;20454;-77
2023/07/07 07:55:19;;;;;;;3.43;3.13;;;;;;;24.56;34.96;101690.56;4948333;29;20446;-76
2023/07/07 07:57:48;;;;;;;4.47;2.70;;;;;;;24.60;35.37;101686.16;4938571;29;20588;-78
2023/07/07 08:00:18;;;;;;;4.40;2.70;;;;;;;24.72;35.24;101693.34;4932518;29;20952;-77
2023/07/07 08:02:48;;;;;;;7.80;2.90;;;;;;;24.85;34.11;101698.31;4930420;29;21000;-77
2023/07/07 08:05:17;;;;;;;2.57;2.30;;;;;;;24.76;34.60;101689.75;4934076;29;20515;-78
2023/07/07 08:07:48;;;;;;;4.10;2.70;;;;;;;24.96;34.08;101698.06;4937567;29;20407;-77
2023/07/07 08:10:18;;;;;;;9.70;3.87;;;;;;;25.24;34.81;101704.94;4932768;29;20442;-78
2023/07/07 08:12:47;;;;;;;5.97;3.00;;;;;;;25.40;33.22;101705.75;4941043;29;20833;-76
2023/07/07 08:15:16;;;;;;;6.87;3.80;;;;;;;25.15;33.97;101703.84;4942044;29;20436;-78
2023/07/07 08:17:45;;;;;;;7.33;2.90;;;;;;;25.20;34.05;101703.00;4955968;29;20464;-76
2023/07/07 08:20:19;;;;;;;2.70;2.40;;;;;;;25.40;33.69;101705.75;4959408;28;20408;-78
2023/07/07 08:22:49;;;;;;;3.77;2.57;;;;;;;25.29;33.32;101704.09;4957927;29;20472;-77
2023/07/07 08:25:18;;;;;;;2.77;2.40;;;;;;;25.23;32.82;101703.28;4958140;28;20425;-77
2023/07/07 08:27:47;;;;;;;4.57;4.00;;;;;;;25.20;33.01;101698.31;4953143;29;20431;-77
2023/07/07 08:30:19;;;;;;;6.33;2.03;;;;;;;25.32;32.59;101703.56;4954384;29;20470;-77
2023/07/07 08:32:48;;;;;;;6.57;3.00;;;;;;;25.42;32.74;101698.78;4953474;28;20422;-76
2023/07/07 08:35:17;;;;;;;3.30;3.00;;;;;;;25.14;34.00;101696.66;4956256;29;20427;-77
2023/07/07 08:37:48;;;;;;;4.03;3.10;;;;;;;25.37;33.85;101701.56;4955365;28;20448;-76
2023/07/07 08:40:22;;;;;;;4.40;2.30;;;;;;;25.61;33.56;101706.53;4950856;28;20520;-78
2023/07/07 08:42:52;;;;;;;4.63;3.00;;;;;;;25.65;33.50;101707.63;4955843;28;20387;-77
2023/07/07 08:45:23;;;;;;;3.30;2.50;;;;;;;25.71;32.30;101706.47;4958138;28;20407;-76
2023/07/07 08:48:15;;;;;;;4.20;2.47;;;;;;;25.81;33.08;101703.66;4957115;28;20428;-76
2023/07/07 08:50:50;;;;;;;4.50;2.77;;;;;;;25.93;32.84;101699.44;4960469;28;20488;-77
2023/07/07 08:53:45;;;;;;;3.97;3.33;;;;;;;26.00;33.19;101709.41;4948398;29;20519;-77
2023/07/07 08:56:21;;;;;;;6.70;4.17;;;;;;;26.17;33.61;101710.69;4938972;29;20452;-77
2023/07/07 08:59:01;;;;;;;3.97;3.60;;;;;;;26.26;34.05;101713.72;4941332;29;20848;-78
2023/07/07 09:01:49;;;;;;;3.57;3.00;;;;;;;26.30;32.62;101704.53;4935761;29;20435;-78
2023/07/07 09:04:35;;;;;;;11.97;3.20;;;;;;;26.05;32.15;101704.63;4935904;29;20451;-77
2023/07/07 09:07:19;;;;;;;5.30;2.93;;;;;;;26.10;32.80;101701.84;4942112;29;20700;-78
2023/07/07 09:10:18;;;;;;;4.43;2.77;;;;;;;25.96;32.08;101698.88;4956703;29;20452;-77
2023/07/07 09:12:51;;;;;;;3.73;2.93;;;;;;;26.14;31.91;101705.69;4942767;29;20455;-76
2023/07/07 09:15:24;;;;;;;4.40;3.30;;;;;;;26.43;32.41;101702.22;4938470;29;20849;-77
2023/07/07 09:17:57;;;;;;;3.20;2.77;;;;;;;26.62;32.20;101711.50;4940988;29;21004;-77
2023/07/07 09:20:31;;;;;;;3.50;3.20;;;;;;;26.78;30.89;101702.75;4940168;29;20452;-77
2023/07/07 09:23:06;;;;;;;3.63;2.90;;;;;;;26.15;31.03;101707.34;4935148;29;20444;-77
2023/07/07 09:25:43;;;;;;;3.10;2.70;;;;;;;25.85;31.29;101702.00;4936113;29;20549;-77
2023/07/07 09:28:21;;;;;;;3.30;2.80;;;;;;;25.79;32.50;101701.19;4940924;29;21000;-77
2023/07/07 09:30:57;;;;;;;4.67;3.33;;;;;;;26.07;32.53;101702.41;4933606;29;20433;-78
2023/07/07 09:33:27;;;;;;;2.90;2.50;;;;;;;26.27;30.91;101704.28;4937083;29;20444;-76
2023/07/07 09:36:16;;;;;;;4.43;2.77;;;;;;;26.50;31.48;101694.38;4937007;29;20484;-78
2023/07/07 09:38:59;;;;;;;4.07;3.07;;;;;;;26.46;31.16;101690.53;4941163;29;20436;-77
2023/07/07 09:41:40;;;;;;;5.87;2.93;;;;;;;26.87;31.81;101697.41;4956175;29;20420;-78
2023/07/07 09:44:25;;;;;;;4.40;2.97;;;;;;;27.17;31.71;101691.56;4955732;29;20444;-76
2023/07/07 09:47:05;;;;;;;6.10;3.20;;;;;;;27.24;31.05;101686.50;4958323;28;20449;-77
2023/07/07 09:49:43;;;;;;;3.40;2.40;;;;;;;27.06;30.11;101697.53;4962329;28;20447;-77
2023/07/07 09:52:36;;;;;;;5.30;3.13;;;;;;;26.76;31.35;101691.13;4959178;28;20488;-77
2023/07/07 09:55:13;;;;;;;5.07;3.87;;;;;;;26.88;31.83;101690.75;4960277;28;20452;-77
2023/07/07 09:57:49;;;;;;;4.23;3.70;;;;;;;27.00;30.94;101688.44;4956633;28;20450;-78
2023/07/07 10:00:20;;;;;;;3.70;2.73;;;;;;;26.87;30.81;101686.31;4957729;28;20461;-78
2023/07/07 10:03:23;;;;;;;2.93;2.63;;;;;;;26.53;30.79;101680.75;4940098;29;20436;-77
2023/07/07 10:05:55;;;;;;;3.47;2.83;;;;;;;26.54;30.83;101678.81;4938259;29;20518;-78
2023/07/07 10:08:26;;;;;;;3.33;2.70;;;;;;;26.58;31.12;101679.88;4940067;29;20499;-78
2023/07/07 10:11:17;;;;;;;2.70;2.23;;;;;;;26.54;30.81;101676.03;4937694;29;20440;-77
2023/07/07 10:13:52;;;;;;;3.00;2.27;;;;;;;26.79;31.00;101678.59;4943566;28;20801;-76
2023/07/07 10:16:32;;;;;;;6.53;3.17;;;;;;;27.10;30.39;101674.44;4932622;29;20439;-77
2023/07/07 10:19:05;;;;;;;3.30;2.40;;;;;;;27.20;30.29;101673.50;4939608;29;20491;-77
2023/07/07 10:21:34;;;;;;;7.83;2.83;;;;;;;27.08;30.18;101673.88;4930657;29;20446;-78
2023/07/07 10:24:04;;;;;;;4.60;3.03;;;;;;;27.05;29.80;101674.50;4941076;29;20436;-77
2023/07/07 10:26:33;;;;;;;3.80;2.90;;;;;;;27.15;29.79;101671.59;4936256;29;20863;-77
2023/07/07 10:29:05;;;;;;;3.80;2.60;;;;;;;26.95;29.19;101663.47;4936788;29;20451;-78
2023/07/07 10:31:34;;;;;;;5.63;2.00;;;;;;;26.66;29.38;101668.16;4936475;29;20471;-78
2023/07/07 10:34:27;;;;;;;2.47;2.10;;;;;;;26.38;30.17;101673.38;4931846;29;20867;-78
2023/07/07 10:36:58;;;;;;;3.30;2.27;;;;;;;26.45;29.70;101667.50;4937006;29;20731;-76
2023/07/07 10:39:28;;;;;;;3.30;2.60;;;;;;;26.75;30.86;101658.09;4929910;29;20539;-78
2023/07/07 10:41:58;;;;;;;2.40;2.20;;;;;;;26.86;29.83;101659.69;4935473;29;20424;-77
2023/07/07 10:44:29;;;;;;;3.03;2.10;;;;;;;26.86;30.06;101662.47;4941045;28;20514;-78
2023/07/07 10:46:59;;;;;;;3.33;2.00;;;;;;;26.82;29.76;101664.13;4935175;29;20552;-78
2023/07/07 10:49:29;;;;;;;2.97;2.67;;;;;;;26.66;29.94;101669.00;4936419;29;20531;-78
2023/07/07 10:52:12;;;;;;;3.83;2.00;;;;;;;26.86;29.73;101656.91;4938968;29;20499;-78
2023/07/07 10:54:54;;;;;;;3.13;2.50;;;;;;;26.76;29.80;101656.97;4938002;29;20437;-78
2023/07/07 10:57:38;;;;;;;3.00;2.43;;;;;;;27.27;30.90;101659.22;4939460;29;20439;-77
2023/07/07 11:00:30;;;;;;;3.50;2.77;;;;;;;27.78;30.48;101657.53;4946391;29;20449;-77
2023/07/07 11:03:24;;;;;;;3.50;2.80;;;;;;;27.90;29.77;101666.22;4945955;29;20468;-77
2023/07/07 11:06:02;;;;;;;2.23;1.90;;;;;;;27.77;28.40;101657.81;4951643;29;20508;-77
2023/07/07 11:08:43;;;;;;;4.23;2.77;;;;;;;27.61;28.24;101657.19;4944984;29;20496;-77
2023/07/07 11:11:23;;;;;;;3.37;3.03;;;;;;;27.51;28.97;101663.69;4942036;29;20436;-77
2023/07/07 11:14:11;;;;;;;3.80;2.30;;;;;;;27.56;28.97;101657.25;4935567;29;20411;-77
2023/07/07 11:16:54;;;;;;;6.90;2.47;;;;;;;27.64;29.26;101656.59;4936174;29;20464;-79
2023/07/07 11:19:57;;;;;;;4.90;4.30;;;;;;;28.04;29.22;101656.00;4942921;29;20455;-77
2023/07/07 11:22:46;;;;;;;3.77;3.07;;;;;;;28.04;30.10;101656.00;4919104;29;20442;-77
2023/07/07 11:25:22;;;;;;;3.53;2.30;;;;;;;28.09;29.55;101641.19;4938961;29;20424;-77
2023/07/07 11:28:09;;;;;;;3.67;2.80;;;;;;;28.24;29.30;101654.06;4947257;29;20523;-77
2023/07/07 11:30:52;;;;;;;2.93;2.07;;;;;;;28.12;28.25;101643.41;4931323;29;20447;-78
2023/07/07 11:33:36;;;;;;;4.60;4.03;;;;;;;28.33;29.21;101646.69;4938623;29;20504;-78
2023/07/07 11:36:43;;;;;;;7.13;2.40;;;;;;;28.08;28.30;101634.78;4929639;29;20463;-78
2023/07/07 11:39:28;;;;;;;4.13;2.10;;;;;;;28.38;29.14;101638.25;4929228;29;20452;-78
2023/07/07 11:42:24;;;;;;;3.97;2.17;;;;;;;27.74;28.47;101634.19;4942899;28;20500;-77
2023/07/07 11:45:08;;;;;;;3.83;2.60;;;;;;;27.58;29.08;101625.25;4936254;29;20535;-77
2023/07/07 11:47:56;;;;;;;4.60;2.20;;;;;;;27.04;28.91;101633.94;4941693;29;20813;-78
2023/07/07 11:50:39;;;;;;;3.20;2.77;;;;;;;26.86;29.02;101629.13;4932310;29;20464;-78